Time;durP1;ratioP1;P1;durP2;ratioP2;P2;SDS_P1;SDS_P2;PMS_P1;PMS_P2;Temp;Humidity;BMP_temperature;BMP_pressure;BME280_temperature;BME280_humidity;BME280_pressure;Samples;Min_cycle;Max_cycle;Signal;HPM_P1;HPM_P2
2021/12/22 00:01:43;;;;;;;1999.90;999.90;;;;;;;-1.01;88.87;162129.94;5038127;28;20045;-67
2021/12/22 00:04:09;;;;;;;1999.90;999.90;;;;;;;-0.87;88.91;162168.22;5056848;28;20677;-67
2021/12/22 00:06:37;;;;;;;1999.90;999.90;;;;;;;-0.93;88.77;162151.84;5040359;28;20048;-66
2021/12/22 00:09:05;;;;;;;1999.90;999.90;;;;;;;-0.92;89.00;162154.59;5042796;28;20049;-67
2021/12/22 00:11:31;;;;;;;1999.90;999.90;;;;;;;-0.81;88.36;162183.25;5041737;28;20080;-68
2021/12/22 00:13:58;;;;;;;1999.90;999.90;;;;;;;-0.79;88.26;162190.09;5039619;28;20396;-66
2021/12/22 00:16:25;;;;;;;1999.90;999.90;;;;;;;-0.74;87.97;162203.75;5037739;28;20098;-66
2021/12/22 00:18:51;;;;;;;1999.90;999.90;;;;;;;-0.73;87.79;162206.50;5034267;28;20422;-66
2021/12/22 00:21:20;;;;;;;1999.90;999.90;;;;;;;-0.67;88.06;162220.13;5041825;28;20053;-66
2021/12/22 00:23:47;;;;;;;1999.90;999.90;;;;;;;-0.81;88.93;162184.59;5045521;28;20119;-66
2021/12/22 00:26:15;;;;;;;1999.90;999.90;;;;;;;-0.71;88.54;162211.94;5053064;28;20052;-66
2021/12/22 00:28:44;;;;;;;1999.90;999.90;;;;;;;-0.63;89.33;162232.44;5042275;28;20385;-67
2021/12/22 00:31:13;;;;;;;1999.90;999.90;;;;;;;-0.56;89.33;162251.56;5047298;28;20045;-67
2021/12/22 00:33:47;;;;;;;1999.90;999.90;;;;;;;-0.58;89.27;162244.72;5037119;28;20404;-67
2021/12/22 00:36:16;;;;;;;1999.90;999.90;;;;;;;-0.59;89.78;162243.38;5040635;28;20072;-67
2021/12/22 00:38:43;;;;;;;1999.90;999.90;;;;;;;-0.83;90.99;162179.16;5045890;28;20076;-66
2021/12/22 00:41:10;;;;;;;1999.90;999.90;;;;;;;-0.90;91.87;162161.38;5038217;28;20048;-67
2021/12/22 00:43:37;;;;;;;1999.90;999.90;;;;;;;-0.90;91.93;162160.03;5040797;28;20049;-67
2021/12/22 00:46:04;;;;;;;1999.90;999.90;;;;;;;-0.76;91.99;162198.31;5043420;28;20077;-67
2021/12/22 00:48:31;;;;;;;1999.90;999.90;;;;;;;-0.50;91.21;162266.59;5047876;28;20098;-67
2021/12/22 00:50:58;;;;;;;1999.90;999.90;;;;;;;-0.26;90.65;162330.84;5041852;28;20582;-67
2021/12/22 00:53:25;;;;;;;1999.90;999.90;;;;;;;-0.23;90.86;162337.69;5038890;28;20385;-67
2021/12/22 00:55:52;;;;;;;1999.90;999.90;;;;;;;-0.09;90.61;162375.97;5038209;28;20084;-67
2021/12/22 00:58:20;;;;;;;1999.90;999.90;;;;;;;-0.17;90.60;162354.06;5046110;28;20092;-67
2021/12/22 01:00:48;;;;;;;1999.90;999.90;;;;;;;-0.15;90.94;162358.19;5038872;28;20057;-67
2021/12/22 01:03:17;;;;;;;1999.90;999.90;;;;;;;-0.25;91.27;162332.22;5045165;28;20133;-67
2021/12/22 01:05:44;;;;;;;1999.90;999.90;;;;;;;-0.43;91.91;162285.75;5040038;28;20056;-67
2021/12/22 01:08:11;;;;;;;1999.90;999.90;;;;;;;-0.50;92.78;162266.59;5039886;28;20091;-67
2021/12/22 01:10:37;;;;;;;1999.90;999.90;;;;;;;-0.62;93.33;162233.81;5036002;28;20365;-67
2021/12/22 01:13:06;;;;;;;1999.90;999.90;;;;;;;-0.50;93.02;162265.25;5038130;28;20068;-67
2021/12/22 01:15:35;;;;;;;1999.90;999.90;;;;;;;-0.32;91.99;162313.09;5039913;28;20046;-66
2021/12/22 01:18:11;;;;;;;1999.90;999.90;;;;;;;-0.53;92.65;162258.41;5042026;28;20413;-66
2021/12/22 01:24:01;;;;;;;1999.90;999.90;;;;;;;-0.38;92.24;162299.38;5024382;28;20080;-66
2021/12/22 01:26:29;;;;;;;1999.90;999.90;;;;;;;-0.32;92.43;162313.09;5043370;28;20058;-66
2021/12/22 01:28:56;;;;;;;1999.90;999.90;;;;;;;-0.10;91.64;162373.22;5033966;28;20046;-66
2021/12/22 01:31:23;;;;;;;1999.90;999.90;;;;;;;0.03;91.48;162406.00;5041614;28;20073;-66
2021/12/22 01:33:49;;;;;;;1999.90;999.90;;;;;;;-0.06;91.12;162384.16;5041043;28;20069;-66
2021/12/22 01:36:16;;;;;;;1999.90;999.90;;;;;;;0.10;90.67;162426.50;5038113;28;20057;-67
2021/12/22 01:38:43;;;;;;;1999.90;999.90;;;;;;;0.24;90.35;162463.47;5037555;28;20080;-66
2021/12/22 01:41:09;;;;;;;1999.90;999.90;;;;;;;0.31;90.66;162482.63;5037554;28;20349;-67
2021/12/22 01:43:36;;;;;;;1999.90;999.90;;;;;;;0.37;89.74;162497.63;5036556;28;20083;-66
2021/12/22 01:46:32;;;;;;;1999.90;999.90;;;;;;;0.21;90.26;162455.25;5042497;28;20370;-66
2021/12/22 01:49:11;;;;;;;1999.90;999.90;;;;;;;0.37;89.52;162496.28;5037889;28;20370;-66
2021/12/22 01:51:44;;;;;;;1999.90;999.90;;;;;;;-0.10;91.47;162371.88;5036857;28;20053;-67
2021/12/22 01:54:19;;;;;;;1999.90;999.90;;;;;;;-0.05;91.24;162386.88;5038204;28;20108;-66
2021/12/22 01:56:48;;;;;;;1999.90;999.90;;;;;;;0.09;91.03;162423.81;5038696;28;20073;-67
2021/12/22 01:59:15;;;;;;;1999.90;999.90;;;;;;;-0.23;91.61;162339.03;5038468;28;20079;-66
2021/12/22 02:01:42;;;;;;;1999.90;999.90;;;;;;;-0.82;93.74;162180.50;5036437;28;20282;-67
2021/12/22 02:04:11;;;;;;;1999.90;999.90;;;;;;;-0.43;93.96;162285.75;5039419;28;20104;-67
2021/12/22 02:06:44;;;;;;;1999.90;999.90;;;;;;;-0.46;93.38;162277.56;5040211;28;20049;-67
2021/12/22 02:09:30;;;;;;;1999.90;999.90;;;;;;;-0.56;94.16;162250.22;5040524;28;20061;-67
2021/12/22 02:11:57;;;;;;;1999.90;999.90;;;;;;;-0.61;93.58;162236.53;5037395;28;20048;-67
2021/12/22 02:14:23;;;;;;;1999.90;999.90;;;;;;;-0.64;94.65;162228.31;5044621;28;20041;-67
2021/12/22 02:16:50;;;;;;;1999.90;999.90;;;;;;;-0.78;95.19;162192.81;5043299;28;20082;-67
2021/12/22 02:19:16;;;;;;;1999.90;999.90;;;;;;;-0.88;95.55;162165.47;5039032;28;20084;-67
2021/12/22 02:21:49;;;;;;;1999.90;999.90;;;;;;;-0.78;95.20;162192.81;5043554;28;20101;-67
2021/12/22 02:24:16;;;;;;;1999.90;999.90;;;;;;;-0.90;96.58;162161.38;5044141;28;20420;-67
2021/12/22 02:26:51;;;;;;;1999.90;999.90;;;;;;;-0.51;95.25;162262.50;5033229;28;20380;-67
2021/12/22 02:29:24;;;;;;;1999.90;999.90;;;;;;;-0.19;93.71;162349.97;5040447;28;20083;-67
2021/12/22 02:32:28;;;;;;;1999.90;999.90;;;;;;;-0.28;93.68;162324.00;5038184;28;20214;-67
2021/12/22 02:35:01;;;;;;;1999.90;999.90;;;;;;;-0.22;93.80;162340.44;5036978;28;20077;-67
2021/12/22 02:37:29;;;;;;;1999.90;999.90;;;;;;;-0.45;94.80;162278.91;5031058;28;20389;-67
2021/12/22 02:39:59;;;;;;;1999.90;999.90;;;;;;;-0.64;95.24;162228.31;5035392;28;20149;-67
2021/12/22 02:42:31;;;;;;;1999.90;999.90;;;;;;;-0.75;96.00;162201.00;5039380;28;20074;-67
2021/12/22 02:45:06;;;;;;;1999.90;999.90;;;;;;;-1.00;96.93;162132.69;5036435;28;20134;-67
2021/12/22 02:47:33;;;;;;;1999.90;999.90;;;;;;;-0.75;96.79;162201.00;5035533;28;20342;-67
2021/12/22 02:49:59;;;;;;;1999.90;999.90;;;;;;;-0.63;96.17;162231.06;5037647;28;20274;-67
2021/12/22 02:52:33;;;;;;;1999.90;999.90;;;;;;;-0.33;95.54;162310.34;5036995;28;20050;-67
2021/12/22 02:55:01;;;;;;;1999.90;999.90;;;;;;;-0.54;96.24;162255.66;5037339;28;20450;-67
2021/12/22 02:57:38;;;;;;;1999.90;999.90;;;;;;;-0.81;96.91;162184.59;5036159;28;20099;-67
2021/12/22 03:05:22;;;;;;;1999.90;999.90;;;;;;;-1.09;99.28;162109.47;5047466;28;20335;-67
2021/12/22 03:07:48;;;;;;;1999.90;999.90;;;;;;;-0.89;98.82;162162.78;5038852;28;20140;-67
2021/12/22 03:10:18;;;;;;;1999.90;999.90;;;;;;;-0.71;97.81;162211.94;5043868;28;20049;-67
2021/12/22 03:12:50;;;;;;;1999.90;999.90;;;;;;;-0.77;97.83;162195.56;5036041;28;20146;-67
2021/12/22 03:15:17;;;;;;;1999.90;999.90;;;;;;;-0.71;98.03;162211.94;5040697;28;20080;-67
2021/12/22 03:17:46;;;;;;;1999.90;999.90;;;;;;;-0.38;97.35;162298.03;5036430;28;20095;-66
2021/12/22 03:20:14;;;;;;;1999.90;999.90;;;;;;;-0.73;98.08;162205.09;5050645;28;20082;-66
2021/12/22 03:22:44;;;;;;;1999.90;999.90;;;;;;;-0.51;97.10;162263.84;5035973;28;20107;-66
2021/12/22 03:25:16;;;;;;;1999.90;999.90;;;;;;;-0.63;98.17;162231.06;5034571;28;20046;-66
2021/12/22 03:27:44;;;;;;;1999.90;999.90;;;;;;;-0.74;98.20;162202.41;5046351;28;20135;-67
2021/12/22 03:30:12;;;;;;;1999.90;999.90;;;;;;;-0.88;99.36;162165.47;5041391;28;20061;-67
2021/12/22 03:32:39;;;;;;;1999.90;999.90;;;;;;;-0.60;98.96;162239.28;5043192;28;20099;-67
2021/12/22 03:35:06;;;;;;;1999.90;999.90;;;;;;;-0.58;98.27;162244.72;5038451;28;20069;-67
2021/12/22 03:37:33;;;;;;;1999.90;999.90;;;;;;;-1.16;99.98;162090.34;5042028;28;20123;-67
2021/12/22 03:40:00;;;;;;;1999.90;999.90;;;;;;;-0.76;99.62;162198.31;5039849;28;20045;-67
2021/12/22 03:42:26;;;;;;;1999.90;999.90;;;;;;;-1.07;100.00;162114.97;5046884;28;20049;-67
2021/12/22 03:44:53;;;;;;;1999.90;999.90;;;;;;;-1.08;100.00;162113.56;5035030;28;20049;-67
2021/12/22 03:47:21;;;;;;;1999.90;999.90;;;;;;;-1.14;100.00;162095.84;5038940;28;20144;-67
2021/12/22 03:49:48;;;;;;;1999.90;999.90;;;;;;;-1.10;100.00;162108.13;5029660;28;20134;-67
2021/12/22 03:52:15;;;;;;;1999.90;999.90;;;;;;;-1.38;100.00;162033.00;5038312;28;20099;-67
2021/12/22 03:54:42;;;;;;;1999.90;999.90;;;;;;;-0.80;100.00;162186.00;5044174;28;20084;-67
2021/12/22 03:57:09;;;;;;;1999.90;999.90;;;;;;;-0.64;99.99;162228.31;5037734;28;20081;-67
2021/12/22 03:59:35;;;;;;;1999.90;999.90;;;;;;;-0.33;98.22;162311.69;5045556;28;20153;-67
2021/12/22 04:02:02;;;;;;;1999.90;999.90;;;;;;;-0.22;97.90;162340.44;5035133;28;20085;-67
2021/12/22 04:04:29;;;;;;;1999.90;999.90;;;;;;;0.01;97.13;162400.56;5033972;28;20049;-67
2021/12/22 04:06:55;;;;;;;1999.90;999.90;;;;;;;-0.25;96.28;162333.59;5035229;28;20085;-67
2021/12/22 04:09:27;;;;;;;1999.90;999.90;;;;;;;-0.42;98.34;162287.09;5040429;28;20118;-67
2021/12/22 04:11:55;;;;;;;1999.90;999.90;;;;;;;-0.35;97.40;162306.25;5033299;28;20341;-66
2021/12/22 04:14:22;;;;;;;1999.90;999.90;;;;;;;-0.23;97.41;162339.03;5036216;28;20057;-66
2021/12/22 04:16:48;;;;;;;1999.90;999.90;;;;;;;-0.44;96.95;162281.66;5039821;28;20134;-66
2021/12/22 04:19:15;;;;;;;1999.90;999.90;;;;;;;-0.88;99.13;162165.47;5036418;28;20081;-66
2021/12/22 04:21:41;;;;;;;1999.90;999.90;;;;;;;-0.78;99.55;162192.81;5037309;28;20057;-66
2021/12/22 04:24:08;;;;;;;1999.90;999.90;;;;;;;-1.01;100.00;162131.34;5034931;28;20514;-66
2021/12/22 04:26:35;;;;;;;1999.90;999.90;;;;;;;-0.97;100.00;162140.88;5042807;28;20069;-66
2021/12/22 04:29:01;;;;;;;1999.90;999.90;;;;;;;-0.70;99.78;162213.28;5042541;28;20072;-66
2021/12/22 04:31:28;;;;;;;1999.90;999.90;;;;;;;-0.85;99.59;162173.66;5040007;28;20053;-66
2021/12/22 04:33:55;;;;;;;1999.90;999.90;;;;;;;-1.00;99.74;162134.03;5032023;28;20426;-66
2021/12/22 04:36:23;;;;;;;1999.90;999.90;;;;;;;-1.26;100.00;162065.75;5043060;28;20100;-66
2021/12/22 04:38:49;;;;;;;1999.90;999.90;;;;;;;-1.02;100.00;162127.25;5039340;28;20045;-66
2021/12/22 04:41:16;;;;;;;1999.90;999.90;;;;;;;-1.53;100.00;161993.41;5031336;28;20053;-67
2021/12/22 04:43:42;;;;;;;1999.90;999.90;;;;;;;-1.21;100.00;162076.69;5037432;28;20425;-67
2021/12/22 04:46:09;;;;;;;1999.90;999.90;;;;;;;-0.96;100.00;162143.63;5038300;28;20110;-67
2021/12/22 04:48:36;;;;;;;1999.90;999.90;;;;;;;-0.99;100.00;162135.44;5042029;28;20056;-67
2021/12/22 04:51:12;;;;;;;1999.90;999.90;;;;;;;-0.94;100.00;162149.09;5049781;28;20535;-67
2021/12/22 04:53:50;;;;;;;1999.90;999.90;;;;;;;-0.42;98.48;162287.09;5044411;28;20052;-67
2021/12/22 04:56:17;;;;;;;1999.90;999.90;;;;;;;-0.62;99.14;162235.19;5044561;28;20041;-67
2021/12/22 04:58:43;;;;;;;1999.90;999.90;;;;;;;-0.81;98.52;162183.25;5046252;28;20091;-67
2021/12/22 05:01:10;;;;;;;1999.90;999.90;;;;;;;-0.57;98.68;162247.47;5044078;28;20068;-67
2021/12/22 05:03:39;;;;;;;1999.90;999.90;;;;;;;-1.19;99.79;162083.53;5047941;28;20077;-67
2021/12/22 05:06:06;;;;;;;1999.90;999.90;;;;;;;-1.36;100.00;162037.09;5048394;28;20049;-67
2021/12/22 05:08:33;;;;;;;1999.90;999.90;;;;;;;-0.89;99.67;162162.78;5040042;28;20077;-67
2021/12/22 05:10:59;;;;;;;1999.90;999.90;;;;;;;-0.90;99.04;162160.03;5046373;28;20423;-67
2021/12/22 05:13:26;;;;;;;1999.90;999.90;;;;;;;-0.79;98.49;162190.09;5039467;28;20038;-67
2021/12/22 05:15:52;;;;;;;1999.90;999.90;;;;;;;-0.79;98.61;162190.09;5044016;28;20076;-67
2021/12/22 05:20:46;;;;;;;1999.90;999.90;;;;;;;-1.15;99.25;162094.44;5041126;28;20073;-67
2021/12/22 05:23:15;;;;;;;1999.90;999.90;;;;;;;-1.67;100.00;161955.16;5043749;28;20048;-67
2021/12/22 05:25:42;;;;;;;1999.90;999.90;;;;;;;-1.36;100.00;162037.09;5044567;28;20045;-67
2021/12/22 05:28:09;;;;;;;1999.90;999.90;;;;;;;-1.30;100.00;162053.47;5049698;28;20134;-67
2021/12/22 05:30:36;;;;;;;1999.90;999.90;;;;;;;-1.35;100.00;162041.19;5042366;28;20072;-67
2021/12/22 05:33:02;;;;;;;1999.90;999.90;;;;;;;-0.79;99.41;162190.09;5048709;28;20115;-67
2021/12/22 05:35:29;;;;;;;1999.90;999.90;;;;;;;-1.08;99.21;162113.56;5043380;28;20095;-67
2021/12/22 05:37:55;;;;;;;1999.90;999.90;;;;;;;-1.36;100.00;162038.44;5044431;28;20116;-67
2021/12/22 05:40:27;;;;;;;1999.90;999.90;;;;;;;-1.77;100.00;161929.25;5047255;28;20453;-67
2021/12/22 05:42:54;;;;;;;1999.90;999.90;;;;;;;-1.55;100.00;161987.91;5047976;28;20099;-67
2021/12/22 05:45:21;;;;;;;1999.90;999.90;;;;;;;-2.01;100.00;161866.44;5043983;28;20145;-67
2021/12/22 05:47:48;;;;;;;1999.90;999.90;;;;;;;-1.98;100.00;161873.22;5038208;28;20049;-66
2021/12/22 05:50:14;;;;;;;1999.90;999.90;;;;;;;-1.54;100.00;161990.66;5043971;28;20130;-66
2021/12/22 05:52:41;;;;;;;1999.90;999.90;;;;;;;-1.58;100.00;161978.38;5038565;28;20337;-67
2021/12/22 05:55:07;;;;;;;1999.90;999.90;;;;;;;-1.80;100.00;161922.41;5037505;28;20081;-67
2021/12/22 05:57:34;;;;;;;1999.90;999.90;;;;;;;-1.43;100.00;162019.31;5039934;28;20179;-67
2021/12/22 06:00:01;;;;;;;1999.90;999.90;;;;;;;-1.31;100.00;162050.72;5041164;28;20461;-67
2021/12/22 06:02:27;;;;;;;1999.90;999.90;;;;;;;-0.86;99.60;162170.97;5033314;28;20049;-67
2021/12/22 06:04:54;;;;;;;1999.90;999.90;;;;;;;-1.18;98.82;162086.25;5041790;28;20073;-67
2021/12/22 06:07:20;;;;;;;1999.90;999.90;;;;;;;-1.69;100.00;161949.72;5040879;28;20073;-67
2021/12/22 06:09:47;;;;;;;1999.90;999.90;;;;;;;-1.81;100.00;161919.66;5035186;28;20123;-67
2021/12/22 06:12:14;;;;;;;1999.90;999.90;;;;;;;-1.47;100.00;162008.44;5036411;28;20085;-67
2021/12/22 06:14:40;;;;;;;1999.90;999.90;;;;;;;-1.79;100.00;161923.75;5038810;28;20072;-67
2021/12/22 06:17:07;;;;;;;1999.90;999.90;;;;;;;-2.13;100.00;161835.03;5035529;28;20095;-67
2021/12/22 06:19:33;;;;;;;1999.90;999.90;;;;;;;-1.97;100.00;161875.97;5037681;28;20099;-67
2021/12/22 06:22:00;;;;;;;1999.90;999.90;;;;;;;-2.25;100.00;161802.25;5043942;28;20083;-67
2021/12/22 06:24:29;;;;;;;1999.90;999.90;;;;;;;-2.06;100.00;161851.41;5036323;28;20155;-67
2021/12/22 06:26:57;;;;;;;1999.90;999.90;;;;;;;-1.86;100.00;161904.63;5043791;28;20102;-67
2021/12/22 06:29:25;;;;;;;1999.90;999.90;;;;;;;-1.68;100.00;161952.41;5038147;28;20080;-67
2021/12/22 06:31:52;;;;;;;1999.90;999.90;;;;;;;-1.84;100.00;161911.47;5041853;28;20122;-67
2021/12/22 06:34:18;;;;;;;1999.90;999.90;;;;;;;-1.74;100.00;161937.44;5044484;28;20080;-67
2021/12/22 06:36:45;;;;;;;1999.90;999.90;;;;;;;-1.60;100.00;161975.63;5041525;28;20041;-67
2021/12/22 06:39:14;;;;;;;1999.90;999.90;;;;;;;-1.70;100.00;161946.97;5034593;28;20084;-67
2021/12/22 06:41:40;;;;;;;1999.90;999.90;;;;;;;-1.83;100.00;161912.81;5040565;28;20095;-67
2021/12/22 06:44:07;;;;;;;1999.90;999.90;;;;;;;-1.87;100.00;161901.94;5042562;28;20116;-67
2021/12/22 06:46:34;;;;;;;1999.90;999.90;;;;;;;-1.60;100.00;161974.28;5043808;28;20045;-67
2021/12/22 06:49:01;;;;;;;1999.90;999.90;;;;;;;-1.73;100.00;161938.78;5036546;28;20102;-67
2021/12/22 06:51:27;;;;;;;1999.90;999.90;;;;;;;-1.63;100.00;161966.09;5037333;28;20053;-67
2021/12/22 06:53:54;;;;;;;1999.90;999.90;;;;;;;-1.58;100.00;161979.72;5040743;28;20257;-67
2021/12/22 06:56:20;;;;;;;1999.90;999.90;;;;;;;-1.77;100.00;161930.59;5043709;28;20053;-67
2021/12/22 06:58:47;;;;;;;1999.90;999.90;;;;;;;-1.50;100.00;162001.59;5044292;28;20135;-67
2021/12/22 07:01:18;;;;;;;1999.90;999.90;;;;;;;-1.47;100.00;162009.78;5046991;28;20072;-67
2021/12/22 07:03:47;;;;;;;1999.90;999.90;;;;;;;-1.69;100.00;161949.72;5035705;28;20301;-67
2021/12/22 07:06:13;;;;;;;1999.90;999.90;;;;;;;-1.39;100.00;162030.25;5042557;28;20049;-67
2021/12/22 07:08:40;;;;;;;1999.90;999.90;;;;;;;-0.97;100.00;162142.28;5039002;28;20053;-67
2021/12/22 07:11:07;;;;;;;1999.90;999.90;;;;;;;-0.92;100.00;162154.59;5046707;28;20053;-67
2021/12/22 07:13:34;;;;;;;1999.90;999.90;;;;;;;-0.64;98.78;162229.72;5035060;28;20049;-67
2021/12/22 07:16:01;;;;;;;1999.90;999.90;;;;;;;-0.73;98.68;162206.50;5039217;28;20363;-67
2021/12/22 07:18:28;;;;;;;1999.90;999.90;;;;;;;-1.38;100.00;162031.66;5041411;28;20087;-67
2021/12/22 07:20:55;;;;;;;1999.90;999.90;;;;;;;-1.35;100.00;162039.84;5036874;28;20076;-67
2021/12/22 07:23:21;;;;;;;1999.90;999.90;;;;;;;-1.70;100.00;161946.97;5043391;28;20041;-67
2021/12/22 07:25:48;;;;;;;1999.90;999.90;;;;;;;-1.49;100.00;162004.34;5044463;28;20072;-67
2021/12/22 07:28:14;;;;;;;1999.90;999.90;;;;;;;-1.21;100.00;162076.69;5037236;28;20053;-67
2021/12/22 07:30:41;;;;;;;1999.90;999.90;;;;;;;-0.77;100.00;162194.19;5040623;28;20048;-67
2021/12/22 07:33:08;;;;;;;1999.90;999.90;;;;;;;-1.19;100.00;162083.53;5044117;28;20053;-67
2021/12/22 07:35:53;;;;;;;1999.90;999.90;;;;;;;-1.07;100.00;162114.97;5034626;28;20084;-67
2021/12/22 07:38:38;;;;;;;1999.90;999.90;;;;;;;-0.55;98.26;162254.31;5036841;28;20053;-67
2021/12/22 07:41:08;;;;;;;1999.90;999.90;;;;;;;-0.62;97.68;162233.81;5031656;28;20065;-67
2021/12/22 07:43:35;;;;;;;1999.90;999.90;;;;;;;-0.42;97.43;162287.09;5042318;28;20049;-67
2021/12/22 07:46:03;;;;;;;1999.90;999.90;;;;;;;-0.69;97.50;162214.69;5038057;28;20464;-67
2021/12/22 07:48:30;;;;;;;1999.90;999.90;;;;;;;-1.11;100.00;162105.38;5035670;28;20087;-67
2021/12/22 07:50:57;;;;;;;1999.90;999.90;;;;;;;-0.62;99.04;162233.81;5037390;28;20045;-67
2021/12/22 07:53:23;;;;;;;1999.90;999.90;;;;;;;-0.39;96.85;162296.69;5040154;28;20110;-67
2021/12/22 07:55:53;;;;;;;1999.90;999.90;;;;;;;-0.71;97.32;162210.59;5043119;28;20084;-67
2021/12/22 07:58:24;;;;;;;1999.90;999.90;;;;;;;-0.32;96.74;162313.09;5029925;28;20050;-67
2021/12/22 08:00:51;;;;;;;1999.90;999.90;;;;;;;-0.08;95.07;162378.66;5041952;28;20434;-67
2021/12/22 08:03:19;;;;;;;1999.90;999.90;;;;;;;0.04;93.92;162408.78;5038458;28;20349;-67
2021/12/22 08:06:06;;;;;;;1999.90;999.90;;;;;;;-0.13;93.63;162365.03;5040390;28;20036;-67
2021/12/22 08:08:32;;;;;;;1999.90;999.90;;;;;;;-0.52;94.59;162259.75;5050270;28;20137;-67
2021/12/22 08:10:59;;;;;;;1999.90;999.90;;;;;;;-0.92;97.00;162154.59;5045726;28;20507;-68
2021/12/22 08:13:25;;;;;;;1999.90;999.90;;;;;;;-0.67;96.46;162220.13;5033032;28;20045;-67
2021/12/22 08:15:52;;;;;;;1999.90;999.90;;;;;;;-0.71;96.66;162211.94;5032855;28;20123;-67
2021/12/22 08:18:20;;;;;;;1999.90;999.90;;;;;;;-0.88;96.76;162165.47;5039129;28;20540;-67
2021/12/22 08:20:47;;;;;;;1999.90;999.90;;;;;;;-0.65;96.25;162225.63;5034239;28;20087;-67
2021/12/22 08:23:13;;;;;;;1999.90;999.90;;;;;;;-0.61;95.61;162236.53;5039792;28;20387;-68
2021/12/22 08:25:40;;;;;;;1999.90;999.90;;;;;;;-0.55;94.77;162252.97;5046791;28;20200;-67
2021/12/22 08:28:06;;;;;;;1999.90;999.90;;;;;;;-0.90;96.18;162160.03;5034890;28;20107;-67
2021/12/22 08:30:33;;;;;;;1999.90;999.90;;;;;;;-0.96;95.81;162143.63;5038720;28;20045;-67
2021/12/22 08:33:04;;;;;;;1999.90;999.90;;;;;;;-0.76;95.70;162196.91;5040303;28;20523;-67
2021/12/22 08:38:50;;;;;;;;;;;;;;;-0.65;95.04;162225.63;5033227;28;20419;-67
2021/12/22 08:41:06;;;;;;;1999.90;999.90;;;;;;;-1.35;96.33;162041.19;5044323;28;20143;-67
2021/12/22 08:43:33;;;;;;;1999.90;999.90;;;;;;;-1.72;97.15;161941.53;5040906;28;20240;-67
2021/12/22 08:45:59;;;;;;;1999.90;999.90;;;;;;;-1.52;96.54;161994.75;5041169;28;20138;-67
2021/12/22 08:48:26;;;;;;;1999.90;999.90;;;;;;;-1.15;94.95;162094.44;5037331;28;20081;-67
2021/12/22 08:50:53;;;;;;;1999.90;999.90;;;;;;;-1.00;94.81;162132.69;5041003;28;20460;-67
2021/12/22 08:53:20;;;;;;;1999.90;999.90;;;;;;;-0.79;93.77;162188.72;5047695;28;20113;-67
2021/12/22 08:55:46;;;;;;;1999.90;999.90;;;;;;;-0.61;93.08;162236.53;5046008;28;20110;-68
2021/12/22 08:58:13;;;;;;;1999.90;999.90;;;;;;;-0.64;93.35;162228.31;5044908;28;20094;-67
2021/12/22 09:00:39;;;;;;;1999.90;999.90;;;;;;;-0.74;95.21;162202.41;5035745;28;20107;-67
2021/12/22 09:03:06;;;;;;;1999.90;999.90;;;;;;;-0.58;95.00;162246.13;5040063;28;20053;-68
2021/12/22 09:05:33;;;;;;;1999.90;999.90;;;;;;;-0.55;94.82;162254.31;5037243;28;20068;-67
2021/12/22 09:07:59;;;;;;;1999.90;999.90;;;;;;;-0.45;94.98;162278.91;5048198;28;20107;-67
2021/12/22 09:10:26;;;;;;;1999.90;999.90;;;;;;;-0.61;95.96;162236.53;5037375;28;20187;-67
2021/12/22 09:12:53;;;;;;;1999.90;999.90;;;;;;;-0.17;94.08;162354.06;5040574;28;20093;-68
2021/12/22 09:15:19;;;;;;;1999.90;999.90;;;;;;;-0.47;94.77;162273.47;5039330;28;20077;-68
2021/12/22 09:17:46;;;;;;;1999.90;999.90;;;;;;;-0.31;93.94;162317.19;5035966;28;20357;-68
2021/12/22 09:20:13;;;;;;;1999.90;999.90;;;;;;;0.00;93.38;162399.22;5044998;28;20665;-68
2021/12/22 09:22:39;;;;;;;1999.90;999.90;;;;;;;-0.02;91.88;162395.06;5044997;28;20099;-68
2021/12/22 09:25:06;;;;;;;1999.90;999.90;;;;;;;-0.05;92.75;162385.53;5047637;28;20052;-68
2021/12/22 09:27:33;;;;;;;1999.90;999.90;;;;;;;0.10;92.93;162425.16;5036941;28;20049;-68
2021/12/22 09:30:00;;;;;;;1999.90;999.90;;;;;;;0.33;92.21;162488.06;5039516;28;20077;-67
2021/12/22 09:32:26;;;;;;;1999.90;999.90;;;;;;;-0.19;94.56;162349.97;5041368;28;20400;-66
2021/12/22 09:34:53;;;;;;;1999.90;999.90;;;;;;;-0.16;94.16;162355.44;5040154;28;20045;-67
2021/12/22 09:37:20;;;;;;;1999.90;999.90;;;;;;;-0.35;94.80;162306.25;5044879;28;20143;-67
2021/12/22 09:39:46;;;;;;;1999.90;999.90;;;;;;;-0.22;93.86;162340.44;5048303;28;20095;-67
2021/12/22 09:42:13;;;;;;;1999.90;999.90;;;;;;;0.21;92.73;162453.88;5042058;28;20061;-67
2021/12/22 09:44:45;;;;;;;1999.90;999.90;;;;;;;0.09;91.64;162423.81;5038869;28;20081;-67
2021/12/22 09:47:23;;;;;;;1999.90;999.90;;;;;;;-0.08;90.73;162378.66;5034108;28;20463;-67
2021/12/22 09:50:10;;;;;;;1999.90;999.90;;;;;;;-0.29;92.14;162321.28;5036995;28;20053;-67
2021/12/22 09:52:38;;;;;;;1999.90;999.90;;;;;;;-0.05;91.35;162385.53;5041740;28;20040;-67
2021/12/22 09:55:08;;;;;;;1999.90;999.90;;;;;;;-0.01;91.11;162397.81;5036165;28;20346;-67
2021/12/22 09:57:35;;;;;;;1999.90;999.90;;;;;;;0.23;90.12;162460.72;5037886;28;20087;-66
2021/12/22 10:00:04;;;;;;;1999.90;999.90;;;;;;;0.53;88.87;162541.38;5041391;28;20106;-67
2021/12/22 10:02:31;;;;;;;1999.90;999.90;;;;;;;0.57;88.58;162549.63;5037583;28;20053;-67
2021/12/22 10:05:00;;;;;;;1999.90;999.90;;;;;;;0.98;87.55;162659.03;5041113;28;20049;-67
2021/12/22 10:07:30;;;;;;;1999.90;999.90;;;;;;;0.61;87.45;162560.53;5042941;28;20049;-67
2021/12/22 10:10:07;;;;;;;1999.90;999.90;;;;;;;0.50;87.60;162533.19;5070446;28;20057;-68
2021/12/22 10:12:34;;;;;;;1999.90;999.90;;;;;;;0.49;86.77;162529.06;5037053;28;20057;-67
2021/12/22 10:15:05;;;;;;;1999.90;999.90;;;;;;;0.23;87.96;162460.72;5043503;28;20291;-67
2021/12/22 10:17:42;;;;;;;1999.90;999.90;;;;;;;0.45;87.34;162518.16;5037713;28;20052;-67
2021/12/22 10:20:13;;;;;;;1999.90;999.90;;;;;;;0.68;86.02;162581.03;5038640;28;20111;-67
2021/12/22 10:22:42;;;;;;;1999.90;999.90;;;;;;;0.15;85.43;162438.88;5043620;28;20134;-68
2021/12/22 10:25:18;;;;;;;1999.90;999.90;;;;;;;0.75;82.99;162597.50;5038271;28;20049;-67
2021/12/22 10:27:57;;;;;;;1999.90;999.90;;;;;;;0.81;81.72;162613.91;5053415;28;20048;-67
2021/12/22 10:30:26;;;;;;;1999.90;999.90;;;;;;;0.33;82.60;162486.72;5039837;28;20053;-67
2021/12/22 10:33:19;;;;;;;1999.90;999.90;;;;;;;0.08;86.50;162421.06;5041849;28;20092;-67
2021/12/22 10:35:49;;;;;;;1999.90;999.90;;;;;;;0.21;85.71;162455.25;5035743;28;20045;-66
2021/12/22 10:38:20;;;;;;;1999.90;999.90;;;;;;;0.64;83.80;162570.13;5035713;28;20049;-67
2021/12/22 10:40:49;;;;;;;1999.90;999.90;;;;;;;0.25;84.90;162464.81;5043518;28;20511;-67
2021/12/22 10:43:23;;;;;;;1999.90;999.90;;;;;;;-0.14;85.85;162362.28;5037511;28;20080;-67
2021/12/22 10:45:56;;;;;;;1999.90;999.90;;;;;;;0.13;85.53;162434.72;5042506;28;20052;-67
2021/12/22 10:51:19;;;;;;;1999.90;999.90;;;;;;;-0.06;86.03;162384.16;5041384;28;20053;-67
2021/12/22 10:53:48;;;;;;;1999.90;999.90;;;;;;;0.42;85.05;162509.97;5036485;28;20056;-67
2021/12/22 10:56:34;;;;;;;1999.90;999.90;;;;;;;0.50;83.88;162531.81;5033573;28;20048;-67
2021/12/22 10:59:15;;;;;;;1999.90;999.90;;;;;;;0.77;83.22;162602.94;5035860;28;20081;-66
2021/12/22 11:01:42;;;;;;;;;;;;;;;0.75;82.77;162597.50;5037063;28;20446;-67
2021/12/22 11:04:15;;;;;;;1999.90;999.90;;;;;;;0.56;82.76;162546.88;5044312;28;19925;-67
2021/12/22 11:06:42;;;;;;;1999.90;999.90;;;;;;;0.77;82.79;162602.94;5038559;28;20049;-66
2021/12/22 11:09:14;;;;;;;1999.90;999.90;;;;;;;0.34;83.07;162490.81;5068575;28;20531;-66
2021/12/22 11:11:47;;;;;;;1999.90;999.90;;;;;;;0.14;84.64;162436.13;5041163;28;20131;-67